Time;durP1;ratioP1;P1;durP2;ratioP2;P2;SDS_P1;SDS_P2;PMS_P1;PMS_P2;Temp;Humidity;BMP_temperature;BMP_pressure;BME280_temperature;BME280_humidity;BME280_pressure;Samples;Min_cycle;Max_cycle;Signal;HPM_P1;HPM_P2
2023/05/03 00:00:16;;;;;;;21.63;19.65;;;1.90;99.90;;;;;;4955323;28;20552;-76
2023/05/03 00:02:43;;;;;;;20.52;18.90;;;1.80;99.90;;;;;;4942061;28;20081;-75
2023/05/03 00:05:11;;;;;;;23.13;19.27;;;1.70;99.90;;;;;;4954698;28;20729;-76
2023/05/03 00:07:42;;;;;;;20.67;18.65;;;1.70;99.90;;;;;;4941926;29;20099;-75
2023/05/03 00:10:11;;;;;;;21.92;19.52;;;1.60;99.90;;;;;;4954858;28;20047;-74
2023/05/03 00:12:39;;;;;;;21.27;19.27;;;1.60;99.90;;;;;;4942085;28;20074;-74
2023/05/03 00:15:07;;;;;;;21.63;19.40;;;1.50;99.90;;;;;;4938775;28;20397;-73
2023/05/03 00:17:35;;;;;;;21.65;19.67;;;1.50;99.90;;;;;;4942857;28;20138;-75
2023/05/03 00:20:03;;;;;;;21.95;20.02;;;1.50;99.90;;;;;;4955433;28;20074;-75
2023/05/03 00:22:31;;;;;;;22.92;20.65;;;1.40;99.90;;;;;;4946490;28;20468;-75
2023/05/03 00:25:01;;;;;;;22.48;20.48;;;1.30;99.90;;;;;;4953809;28;20040;-75
2023/05/03 00:27:28;;;;;;;22.83;20.70;;;1.20;99.90;;;;;;4942575;28;20050;-75
2023/05/03 00:29:54;;;;;;;23.35;21.20;;;1.20;99.90;;;;;;4922644;29;20110;-74
2023/05/03 00:32:21;;;;;;;23.08;20.90;;;1.20;99.90;;;;;;4944696;28;20055;-75
2023/05/03 00:34:53;;;;;;;22.85;20.80;;;1.10;99.90;;;;;;4942535;29;20063;-74
2023/05/03 00:37:21;;;;;;;23.92;21.63;;;1.20;99.90;;;;;;4951147;28;20054;-75
2023/05/03 00:39:48;;;;;;;26.38;22.05;;;1.30;99.90;;;;;;4937362;29;20066;-76
2023/05/03 00:42:15;;;;;;;24.58;22.20;;;1.20;99.90;;;;;;4930891;29;20715;-74
2023/05/03 00:44:42;;;;;;;22.60;20.27;;;1.10;99.90;;;;;;4941706;28;20047;-76
2023/05/03 00:47:09;;;;;;;24.00;21.73;;;1.00;99.90;;;;;;4937365;28;20155;-75
2023/05/03 00:49:36;;;;;;;25.40;22.75;;;1.10;99.90;;;;;;4951759;28;20134;-75
2023/05/03 00:52:03;;;;;;;25.77;22.17;;;1.00;99.90;;;;;;4936997;28;20074;-75
2023/05/03 00:54:32;;;;;;;25.45;22.80;;;1.00;99.90;;;;;;4942424;28;20151;-75
2023/05/03 00:57:00;;;;;;;26.52;21.45;;;1.00;99.90;;;;;;4936148;28;20724;-74
2023/05/03 00:59:27;;;;;;;24.60;22.10;;;0.90;99.90;;;;;;4956742;28;20078;-75
2023/05/03 01:01:54;;;;;;;23.25;20.92;;;0.90;99.90;;;;;;4939308;28;20401;-74
2023/05/03 01:04:22;;;;;;;22.92;20.77;;;1.10;99.90;;;;;;4956938;28;20071;-74
2023/05/03 01:07:22;;;;;;;27.38;21.42;;;1.00;99.90;;;;;;4938899;28;20043;-77
2023/05/03 01:10:00;;;;;;;23.05;20.50;;;1.10;99.90;;;;;;4938111;28;20051;-78
2023/05/03 01:12:43;;;;;;;26.13;19.77;;;1.10;99.90;;;;;;4925472;29;20054;-78
2023/05/03 01:15:43;;;;;;;30.38;20.55;;;1.20;99.90;;;;;;4938608;28;20043;-78
2023/05/03 01:18:14;;;;;;;22.20;20.13;;;1.10;99.90;;;;;;4954580;28;20187;-77
2023/05/03 01:20:46;;;;;;;22.88;20.52;;;1.10;99.90;;;;;;4941772;28;20135;-75
2023/05/03 01:23:35;;;;;;;23.08;19.90;;;0.90;99.90;;;;;;4922011;29;20134;-77
2023/05/03 01:26:17;;;;;;;22.95;20.52;;;1.00;99.90;;;;;;4953181;28;20574;-75
2023/05/03 01:28:43;;;;;;;22.02;19.00;;;0.90;99.90;;;;;;4924471;29;20071;-74
2023/05/03 01:31:11;;;;;;;24.60;18.77;;;0.90;99.90;;;;;;4952691;28;20043;-76
2023/05/03 01:33:57;;;;;;;26.27;20.25;;;0.80;99.90;;;;;;4941595;28;20074;-76
2023/05/03 01:36:31;;;;;;;;;;;0.80;99.90;;;;;;4934437;28;20039;-74
2023/05/03 01:39:04;;;;;;;22.88;20.33;;;0.90;99.90;;;;;;4939345;28;19922;-74
2023/05/03 01:41:33;;;;;;;22.88;20.55;;;0.90;99.90;;;;;;4956104;28;20075;-76
2023/05/03 01:44:00;;;;;;;23.50;21.30;;;0.80;99.90;;;;;;4925622;29;20522;-76
2023/05/03 01:46:27;;;;;;;23.38;21.13;;;0.80;99.90;;;;;;4943936;28;20137;-76
2023/05/03 01:48:54;;;;;;;24.35;22.05;;;0.80;99.90;;;;;;4955894;28;20051;-75
2023/05/03 01:51:20;;;;;;;23.58;21.25;;;0.80;99.90;;;;;;4953422;28;20126;-75
2023/05/03 01:53:48;;;;;;;27.52;22.70;;;0.60;99.90;;;;;;4940515;28;20670;-75
2023/05/03 01:56:15;;;;;;;24.05;21.65;;;0.60;99.90;;;;;;4935345;28;20114;-75
2023/05/03 01:58:42;;;;;;;26.85;21.88;;;0.60;99.90;;;;;;4939485;28;20078;-79
2023/05/03 02:01:08;;;;;;;24.08;21.65;;;0.60;99.90;;;;;;4952307;28;20119;-74
2023/05/03 02:03:35;;;;;;;25.48;22.95;;;0.50;99.90;;;;;;4955966;28;20125;-76
2023/05/03 02:06:02;;;;;;;32.25;23.40;;;0.50;99.90;;;;;;4952745;28;20061;-76
2023/05/03 02:08:29;;;;;;;30.85;23.70;;;0.50;99.90;;;;;;4921366;29;20040;-75
2023/05/03 02:10:55;;;;;;;25.05;22.80;;;0.50;99.90;;;;;;4952400;28;20124;-76
2023/05/03 02:13:22;;;;;;;25.90;23.02;;;0.40;99.90;;;;;;4938661;28;20668;-77
2023/05/03 02:15:49;;;;;;;25.85;23.25;;;0.30;99.90;;;;;;4939812;28;20070;-76
2023/05/03 02:18:17;;;;;;;26.55;23.58;;;0.20;99.90;;;;;;4954436;28;20611;-76
2023/05/03 02:20:45;;;;;;;26.15;23.00;;;0.20;99.90;;;;;;4955512;28;20043;-77
2023/05/03 02:23:12;;;;;;;26.33;23.52;;;0.20;99.90;;;;;;4928726;28;20043;-76
2023/05/03 02:25:39;;;;;;;26.98;23.70;;;0.20;99.90;;;;;;4939832;28;20070;-77
2023/05/03 02:28:06;;;;;;;25.38;22.95;;;0.20;99.90;;;;;;4938018;28;20541;-79
2023/05/03 02:30:34;;;;;;;25.70;23.05;;;0.20;99.90;;;;;;4956273;28;20043;-75
2023/05/03 02:33:01;;;;;;;26.25;23.63;;;0.20;99.90;;;;;;4922409;28;20052;-75
2023/05/03 02:35:29;;;;;;;27.38;23.23;;;0.20;99.90;;;;;;4924275;28;20086;-76
2023/05/03 02:37:56;;;;;;;26.02;23.35;;;0.20;99.90;;;;;;4939794;28;20054;-75
2023/05/03 02:40:22;;;;;;;26.00;23.33;;;0.20;99.90;;;;;;4953827;28;20130;-76
2023/05/03 02:42:50;;;;;;;26.88;24.02;;;0.20;99.90;;;;;;4940777;28;20102;-76
2023/05/03 02:45:23;;;;;;;26.55;24.05;;;0.10;99.90;;;;;;4938259;28;20054;-77
2023/05/03 02:47:50;;;;;;;26.83;23.95;;;0.10;99.90;;;;;;4955604;28;20051;-75
2023/05/03 02:50:17;;;;;;;27.83;24.98;;;0.10;99.90;;;;;;4952381;28;20042;-76
2023/05/03 02:52:45;;;;;;;26.55;23.92;;;0.20;99.90;;;;;;4947313;28;20058;-77
2023/05/03 02:55:12;;;;;;;28.48;24.27;;;0.20;99.90;;;;;;4940215;28;20057;-77
2023/05/03 02:57:40;;;;;;;26.48;22.77;;;0.10;99.90;;;;;;4939742;29;20054;-75
2023/05/03 03:00:14;;;;;;;28.65;23.15;;;0.20;99.90;;;;;;4951350;28;20057;-75
2023/05/03 03:02:41;;;;;;;25.98;23.33;;;0.20;99.90;;;;;;4951404;28;20050;-76
2023/05/03 03:05:08;;;;;;;26.63;23.98;;;0.00;99.90;;;;;;4940831;28;20408;-76
2023/05/03 03:07:37;;;;;;;26.33;23.83;;;0.10;99.90;;;;;;4935747;28;20043;-76
2023/05/03 03:10:04;;;;;;;25.33;22.83;;;0.00;99.90;;;;;;4949405;28;20065;-75
2023/05/03 03:12:34;;;;;;;27.15;24.55;;;0.00;99.90;;;;;;4939255;28;20127;-75
2023/05/03 03:15:03;;;;;;;31.80;24.00;;;0.00;99.90;;;;;;4922153;28;20039;-75
2023/05/03 03:17:32;;;;;;;26.63;23.38;;;-0.10;99.90;;;;;;4953471;28;20440;-75
2023/05/03 03:20:00;;;;;;;24.40;22.13;;;-0.10;99.90;;;;;;4951599;28;20577;-76
2023/05/03 03:22:28;;;;;;;24.52;22.08;;;-0.10;99.90;;;;;;4952363;28;20042;-75
2023/05/03 03:24:55;;;;;;;26.17;21.77;;;-0.20;99.90;;;;;;4953626;28;20035;-77
2023/05/03 03:27:22;;;;;;;27.27;22.35;;;0.00;99.90;;;;;;4950575;28;20047;-75
2023/05/03 03:29:49;;;;;;;24.17;21.73;;;-0.10;99.90;;;;;;4952047;28;20036;-77
2023/05/03 03:32:16;;;;;;;25.40;22.45;;;-0.10;99.90;;;;;;4950570;28;20656;-76
2023/05/03 03:34:43;;;;;;;25.30;22.00;;;-0.10;99.90;;;;;;4951248;28;20040;-76
2023/05/03 03:37:10;;;;;;;24.60;22.35;;;0.00;99.90;;;;;;4949144;28;20521;-78
2023/05/03 03:39:40;;;;;;;24.38;21.35;;;-0.10;99.90;;;;;;4954237;28;20075;-78
2023/05/03 03:42:09;;;;;;;23.77;21.35;;;-0.20;99.90;;;;;;4941296;28;20039;-78
2023/05/03 03:44:36;;;;;;;27.30;22.60;;;-0.20;99.90;;;;;;4938920;28;20559;-79
2023/05/03 03:47:04;;;;;;;23.85;21.55;;;-0.20;99.90;;;;;;4950542;28;20143;-78
2023/05/03 03:49:32;;;;;;;24.52;21.13;;;-0.20;99.90;;;;;;4947872;28;20043;-78
2023/05/03 03:51:59;;;;;;;23.85;21.63;;;-0.20;99.90;;;;;;4941966;28;20051;-78
2023/05/03 03:54:26;;;;;;;23.88;21.75;;;-0.20;99.90;;;;;;4937554;28;20765;-79
2023/05/03 03:56:53;;;;;;;22.73;20.73;;;-0.20;99.90;;;;;;4920833;29;20167;-78
2023/05/03 03:59:20;;;;;;;23.88;21.27;;;-0.20;99.90;;;;;;4936054;29;20146;-78
2023/05/03 04:01:46;;;;;;;22.60;20.50;;;-0.30;99.90;;;;;;4937987;28;20046;-78
2023/05/03 04:04:14;;;;;;;23.70;21.17;;;-0.10;99.90;;;;;;4950463;28;20047;-77
2023/05/03 04:06:42;;;;;;;23.90;21.60;;;-0.10;99.90;;;;;;4937972;28;20061;-77
2023/05/03 04:09:12;;;;;;;24.92;22.27;;;0.00;99.90;;;;;;4950956;28;20101;-78
2023/05/03 04:11:39;;;;;;;23.83;21.60;;;0.00;99.90;;;;;;4937778;28;20142;-78
2023/05/03 04:14:06;;;;;;;26.40;22.65;;;0.00;99.90;;;;;;4936654;28;20079;-77
2023/05/03 04:16:33;;;;;;;26.15;23.25;;;-0.10;99.90;;;;;;4937587;28;20070;-78
2023/05/03 04:19:02;;;;;;;25.58;23.00;;;-0.10;99.90;;;;;;4939002;28;20605;-77
2023/05/03 04:21:31;;;;;;;23.85;21.50;;;-0.10;99.90;;;;;;4951502;28;20064;-78
2023/05/03 04:23:59;;;;;;;30.77;23.20;;;-0.10;99.90;;;;;;4936688;28;20113;-77
2023/05/03 04:26:26;;;;;;;28.63;22.38;;;-0.20;99.90;;;;;;4935891;28;20051;-78
2023/05/03 04:29:05;;;;;;;26.00;23.30;;;-0.20;99.90;;;;;;4942913;28;20051;-77
2023/05/03 04:31:33;;;;;;;24.02;21.85;;;-0.20;99.90;;;;;;4939441;28;20051;-78
2023/05/03 04:34:03;;;;;;;24.70;22.33;;;-0.20;99.90;;;;;;4937295;29;20081;-77
2023/05/03 04:36:30;;;;;;;32.75;25.88;;;-0.30;99.90;;;;;;4937980;28;20066;-78
2023/05/03 04:38:57;;;;;;;28.60;23.48;;;-0.20;99.90;;;;;;4958878;28;20043;-77
2023/05/03 04:41:24;;;;;;;29.92;24.55;;;-0.20;99.90;;;;;;4937601;28;20055;-78
2023/05/03 04:43:53;;;;;;;24.95;22.45;;;-0.10;99.90;;;;;;4957222;28;20553;-78
2023/05/03 04:46:20;;;;;;;25.88;23.30;;;-0.10;99.90;;;;;;4937286;28;20071;-78
2023/05/03 04:48:48;;;;;;;28.45;24.02;;;0.20;99.90;;;;;;4954033;28;20081;-78
2023/05/03 04:51:15;;;;;;;25.50;23.10;;;0.20;99.90;;;;;;4920726;28;20058;-78
2023/05/03 04:53:43;;;;;;;25.42;22.98;;;0.20;99.90;;;;;;4941013;29;20047;-76
2023/05/03 04:56:14;;;;;;;25.45;22.23;;;0.30;99.90;;;;;;4934645;28;20055;-75
2023/05/03 04:58:43;;;;;;;24.25;21.90;;;0.50;99.90;;;;;;4926967;29;20051;-77
2023/05/03 05:01:11;;;;;;;26.38;21.58;;;0.60;99.90;;;;;;4937023;28;20126;-76
2023/05/03 05:03:38;;;;;;;23.98;21.52;;;0.60;99.90;;;;;;4925020;29;20111;-76
2023/05/03 05:06:11;;;;;;;24.88;21.55;;;0.80;99.90;;;;;;4947652;28;20047;-75
2023/05/03 05:08:39;;;;;;;25.20;22.40;;;0.90;99.90;;;;;;4939838;28;20054;-76
2023/05/03 05:11:09;;;;;;;27.42;23.08;;;0.80;99.90;;;;;;4954297;28;20051;-76
2023/05/03 05:13:37;;;;;;;24.48;21.58;;;0.90;99.90;;;;;;4950634;28;20055;-76
2023/05/03 05:16:04;;;;;;;24.90;22.50;;;0.90;99.90;;;;;;4938626;28;20043;-76
2023/05/03 05:18:31;;;;;;;26.77;22.50;;;1.00;99.90;;;;;;4938374;28;20557;-76
2023/05/03 05:21:01;;;;;;;26.50;24.02;;;1.10;99.90;;;;;;4938762;28;20051;-75
2023/05/03 05:23:30;;;;;;;25.05;22.77;;;1.20;99.90;;;;;;4935491;29;20536;-75
2023/05/03 05:25:59;;;;;;;25.08;21.95;;;1.20;99.90;;;;;;4952498;28;20051;-76
2023/05/03 05:28:29;;;;;;;30.27;23.95;;;1.50;99.90;;;;;;4936376;28;21326;-75
2023/05/03 05:30:56;;;;;;;27.05;24.48;;;1.50;99.90;;;;;;4945391;28;20047;-75
2023/05/03 05:33:23;;;;;;;25.73;23.20;;;1.70;99.90;;;;;;4952546;28;20049;-75
2023/05/03 05:35:51;;;;;;;24.85;22.35;;;1.70;99.90;;;;;;4938752;28;20043;-76
2023/05/03 05:38:20;;;;;;;24.52;22.10;;;1.70;99.90;;;;;;4940740;28;21458;-75
2023/05/03 05:40:48;;;;;;;24.13;21.55;;;1.80;99.90;;;;;;4938496;28;20051;-76
2023/05/03 05:43:16;;;;;;;22.27;20.15;;;1.90;99.90;;;;;;4952792;28;20043;-75
2023/05/03 05:45:44;;;;;;;20.67;18.75;;;2.00;99.90;;;;;;4956084;28;20046;-75
2023/05/03 05:48:12;;;;;;;21.67;18.60;;;2.10;99.90;;;;;;4953812;28;20047;-75
2023/05/03 05:50:39;;;;;;;20.60;18.50;;;2.20;99.90;;;;;;4955883;28;20702;-76
2023/05/03 05:53:09;;;;;;;20.67;18.58;;;2.40;99.90;;;;;;4939810;28;20042;-77
2023/05/03 05:55:41;;;;;;;18.98;16.55;;;2.50;99.90;;;;;;4940147;28;20047;-77
2023/05/03 05:58:10;;;;;;;17.00;15.30;;;2.70;99.90;;;;;;4952907;28;20536;-76
2023/05/03 06:00:42;;;;;;;16.00;14.20;;;2.90;99.90;;;;;;4956965;28;20054;-76
2023/05/03 06:03:09;;;;;;;17.95;15.25;;;3.30;99.90;;;;;;4956238;28;20537;-76
2023/05/03 06:05:36;;;;;;;17.73;16.13;;;4.00;99.90;;;;;;4941315;28;20579;-76
2023/05/03 06:08:03;;;;;;;22.65;20.83;;;4.40;99.90;;;;;;4961009;28;20067;-76
2023/05/03 06:10:30;;;;;;;26.20;24.48;;;4.90;99.90;;;;;;4967430;28;20054;-76
2023/05/03 06:12:57;;;;;;;29.10;26.92;;;5.30;99.90;;;;;;4947175;28;20134;-76
2023/05/03 06:15:26;;;;;;;30.15;28.30;;;5.50;99.90;;;;;;4953475;28;20043;-77
2023/05/03 06:17:52;;;;;;;34.22;31.20;;;5.80;99.90;;;;;;4924723;29;20058;-76
2023/05/03 06:20:20;;;;;;;32.03;29.83;;;5.90;99.90;;;;;;4952553;28;21287;-76
2023/05/03 06:22:48;;;;;;;31.48;29.23;;;6.00;99.90;;;;;;4949024;28;20747;-76
2023/05/03 06:25:15;;;;;;;30.80;28.17;;;6.30;99.90;;;;;;4951540;28;20142;-77
2023/05/03 06:27:46;;;;;;;31.40;29.50;;;6.60;99.90;;;;;;4953944;28;20153;-75
2023/05/03 06:30:13;;;;;;;31.40;29.30;;;6.80;99.90;;;;;;4937655;28;20071;-75
2023/05/03 06:32:41;;;;;;;32.30;30.25;;;6.80;99.90;;;;;;4950959;28;20118;-75
2023/05/03 06:35:09;;;;;;;33.78;31.63;;;6.90;99.90;;;;;;4955229;28;20055;-76
2023/05/03 06:37:38;;;;;;;33.45;31.35;;;6.80;99.90;;;;;;4937921;28;20039;-76
2023/05/03 06:40:06;;;;;;;33.40;31.38;;;6.90;99.90;;;;;;4938077;29;20055;-75
2023/05/03 06:42:32;;;;;;;33.70;31.42;;;7.20;99.90;;;;;;4938173;28;20042;-75
2023/05/03 06:45:24;;;;;;;32.30;30.13;;;7.10;99.90;;;;;;4939778;28;20473;-75
2023/05/03 06:47:51;;;;;;;33.95;31.25;;;7.00;99.90;;;;;;4936953;28;20039;-76
2023/05/03 06:50:19;;;;;;;33.30;31.20;;;7.20;99.90;;;;;;4950661;28;20047;-76
2023/05/03 06:52:45;;;;;;;35.70;33.30;;;7.40;99.90;;;;;;4940743;28;20109;-76
2023/05/03 06:55:12;;;;;;;35.10;32.90;;;7.50;99.90;;;;;;4954293;28;20043;-75
2023/05/03 06:57:41;;;;;;;33.40;31.30;;;7.60;99.90;;;;;;4952190;28;20138;-75
2023/05/03 07:00:08;;;;;;;34.58;32.63;;;7.60;99.90;;;;;;4954429;28;20747;-75
2023/05/03 07:02:36;;;;;;;34.47;32.08;;;8.00;99.90;;;;;;4953867;28;20572;-76
2023/05/03 07:05:03;;;;;;;33.03;31.13;;;8.10;99.90;;;;;;4940338;28;20531;-75
2023/05/03 07:07:29;;;;;;;33.83;31.63;;;8.00;99.90;;;;;;4950988;28;20641;-76
2023/05/03 07:09:56;;;;;;;35.40;33.05;;;7.80;99.90;;;;;;4938999;29;20085;-75
2023/05/03 07:12:26;;;;;;;35.67;33.47;;;7.70;99.90;;;;;;4920420;29;20046;-76
2023/05/03 07:14:56;;;;;;;36.17;33.90;;;7.80;99.90;;;;;;4942268;28;20620;-75
2023/05/03 07:17:24;;;;;;;37.50;35.30;;;8.00;99.90;;;;;;4936236;28;20067;-75
2023/05/03 07:19:51;;;;;;;36.30;34.03;;;8.40;99.90;;;;;;4951013;28;20042;-75
2023/05/03 07:22:24;;;;;;;36.30;34.05;;;8.50;99.90;;;;;;4949198;28;20048;-75
2023/05/03 07:24:53;;;;;;;37.47;35.45;;;8.60;99.90;;;;;;4939291;29;20142;-75
2023/05/03 07:27:20;;;;;;;38.97;36.53;;;8.80;99.90;;;;;;4934344;28;20083;-75
2023/05/03 07:29:47;;;;;;;38.15;35.85;;;9.20;99.90;;;;;;4943624;28;20061;-76
2023/05/03 07:32:13;;;;;;;39.42;37.22;;;9.40;99.90;;;;;;4950411;28;20549;-75
2023/05/03 07:34:40;;;;;;;37.72;35.38;;;9.30;99.90;;;;;;4938179;29;20109;-76
2023/05/03 07:37:07;;;;;;;39.40;36.70;;;9.30;99.90;;;;;;4938452;28;20581;-75
2023/05/03 07:39:33;;;;;;;40.35;37.53;;;9.40;99.90;;;;;;4938344;28;20061;-75
2023/05/03 07:42:01;;;;;;;37.70;35.20;;;9.40;99.90;;;;;;4938624;28;20043;-75
2023/05/03 07:44:27;;;;;;;39.97;36.70;;;9.70;99.90;;;;;;4937433;28;20085;-76
2023/05/03 07:46:54;;;;;;;38.75;35.65;;;9.60;99.90;;;;;;4954199;28;20526;-74
2023/05/03 07:49:21;;;;;;;38.10;35.90;;;9.60;99.90;;;;;;4936882;28;20421;-75
2023/05/03 07:51:48;;;;;;;38.88;36.22;;;9.30;99.90;;;;;;4954698;28;20035;-74
2023/05/03 07:54:15;;;;;;;38.97;36.45;;;8.70;99.90;;;;;;4952042;28;20058;-74
2023/05/03 07:56:42;;;;;;;40.63;37.70;;;8.70;99.90;;;;;;4951742;28;20117;-74
2023/05/03 07:59:09;;;;;;;37.05;34.38;;;8.30;99.90;;;;;;4933356;28;20127;-75
2023/05/03 08:01:37;;;;;;;37.33;35.00;;;8.70;99.90;;;;;;4936718;28;20656;-75
2023/05/03 08:04:04;;;;;;;38.47;35.95;;;9.00;99.90;;;;;;4942517;28;20047;-74
2023/05/03 08:06:34;;;;;;;40.65;38.13;;;9.10;99.90;;;;;;4955290;28;20051;-75
2023/05/03 08:09:01;;;;;;;42.28;39.70;;;9.10;99.90;;;;;;4941792;29;20051;-74
2023/05/03 08:11:27;;;;;;;42.55;39.78;;;9.50;99.90;;;;;;4954477;28;20043;-75
2023/05/03 08:13:55;;;;;;;41.00;38.55;;;10.00;99.90;;;;;;4958238;28;20090;-74
2023/05/03 08:16:22;;;;;;;40.55;38.15;;;10.60;99.90;;;;;;4946338;28;20544;-75
2023/05/03 08:18:48;;;;;;;41.20;38.35;;;10.50;99.90;;;;;;4940731;28;20047;-75
2023/05/03 08:21:16;;;;;;;41.60;38.92;;;10.20;99.90;;;;;;4941909;28;20046;-75
2023/05/03 08:23:43;;;;;;;39.85;37.45;;;10.30;99.90;;;;;;4943536;28;20472;-74
2023/05/03 08:26:12;;;;;;;43.28;40.65;;;10.20;99.90;;;;;;4942595;28;20035;-76
2023/05/03 08:28:39;;;;;;;45.28;42.22;;;10.00;99.90;;;;;;4936421;28;20047;-75
2023/05/03 08:31:06;;;;;;;43.47;40.92;;;9.60;99.90;;;;;;4939705;28;20043;-76
2023/05/03 08:33:33;;;;;;;44.42;41.83;;;10.40;99.90;;;;;;4940885;28;20043;-76
2023/05/03 08:36:00;;;;;;;42.72;40.22;;;10.90;99.90;;;;;;4941762;29;20412;-75
2023/05/03 08:38:27;;;;;;;44.30;41.72;;;10.90;99.90;;;;;;4939186;29;20055;-76
2023/05/03 08:40:58;;;;;;;43.97;41.28;;;10.80;99.90;;;;;;4942402;28;20035;-75
2023/05/03 08:43:27;;;;;;;44.22;41.78;;;10.70;99.90;;;;;;4940568;28;20046;-75
2023/05/03 08:45:54;;;;;;;43.70;41.03;;;10.60;99.90;;;;;;4943633;28;20039;-75
2023/05/03 08:48:21;;;;;;;38.75;36.55;;;9.50;99.90;;;;;;4940510;28;20050;-73
2023/05/03 08:50:50;;;;;;;39.70;37.22;;;9.10;99.90;;;;;;4952274;28;20050;-75
2023/05/03 08:53:17;;;;;;;48.85;45.92;;;9.20;99.90;;;;;;4956726;28;20050;-75
2023/05/03 08:55:44;;;;;;;42.13;39.60;;;9.60;99.90;;;;;;4955190;28;20046;-75
2023/05/03 08:58:12;;;;;;;39.53;36.92;;;9.60;99.90;;;;;;4955610;28;20047;-75
2023/05/03 09:00:43;;;;;;;41.63;38.90;;;10.10;99.90;;;;;;4954480;28;20661;-75
2023/05/03 09:03:10;;;;;;;42.47;39.70;;;10.90;99.90;;;;;;4937999;28;20123;-75
2023/05/03 09:05:39;;;;;;;42.78;40.13;;;11.30;99.90;;;;;;4937041;28;20531;-75
2023/05/03 09:08:10;;;;;;;42.75;40.25;;;11.50;99.90;;;;;;4939196;28;20053;-74
2023/05/03 09:10:39;;;;;;;40.85;37.80;;;10.90;99.90;;;;;;4939175;28;20619;-76
2023/05/03 09:13:07;;;;;;;42.53;39.40;;;10.60;99.90;;;;;;4955733;28;20557;-75
2023/05/03 09:15:34;;;;;;;43.58;40.97;;;10.80;99.90;;;;;;4936744;28;20039;-74
2023/05/03 09:18:10;;;;;;;44.13;41.42;;;10.80;99.90;;;;;;4941588;28;20039;-75
2023/05/03 09:20:39;;;;;;;41.20;38.47;;;10.30;99.90;;;;;;4937286;28;20043;-75
2023/05/03 09:23:07;;;;;;;43.13;40.33;;;9.60;99.90;;;;;;4955860;28;20058;-75
2023/05/03 09:25:41;;;;;;;44.38;41.50;;;9.90;99.90;;;;;;4936918;28;20052;-76
2023/05/03 09:28:08;;;;;;;43.50;40.80;;;10.20;99.90;;;;;;4940974;29;20042;-75
2023/05/03 09:30:34;;;;;;;42.85;40.28;;;10.40;99.90;;;;;;4937607;28;20039;-75
2023/05/03 09:33:01;;;;;;;42.45;39.95;;;10.90;99.90;;;;;;4955906;28;20638;-75
2023/05/03 09:35:28;;;;;;;40.83;38.30;;;11.20;99.90;;;;;;4935796;28;20409;-75
2023/05/03 09:37:55;;;;;;;42.50;39.72;;;11.80;99.90;;;;;;4941262;28;20445;-74
2023/05/03 09:40:21;;;;;;;41.97;39.50;;;11.70;99.90;;;;;;4938940;28;20074;-74
2023/05/03 09:43:09;;;;;;;44.28;41.28;;;12.30;99.90;;;;;;4955376;28;20054;-75
2023/05/03 09:45:36;;;;;;;45.85;43.05;;;12.80;99.90;;;;;;4954121;28;20700;-74
2023/05/03 09:48:04;;;;;;;43.72;41.13;;;12.30;99.90;;;;;;4941957;28;20050;-74
2023/05/03 09:50:32;;;;;;;45.08;42.28;;;12.00;99.90;;;;;;4938214;28;20050;-75
2023/05/03 09:53:04;;;;;;;43.42;40.75;;;11.30;99.90;;;;;;4941638;28;20068;-74
2023/05/03 09:55:40;;;;;;;45.22;41.97;;;11.80;99.90;;;;;;4940126;28;20051;-75
2023/05/03 09:58:07;;;;;;;44.58;41.83;;;11.50;99.90;;;;;;4941234;29;20039;-74
2023/05/03 10:00:37;;;;;;;44.33;41.63;;;11.60;99.90;;;;;;4955196;28;21275;-76
2023/05/03 10:03:07;;;;;;;44.85;41.97;;;12.00;99.90;;;;;;4943148;28;20036;-75
2023/05/03 10:05:48;;;;;;;44.70;41.83;;;12.90;99.90;;;;;;4947022;28;20718;-74
2023/05/03 10:08:42;;;;;;;47.00;44.17;;;13.60;99.90;;;;;;4942840;28;20043;-75
2023/05/03 10:11:13;;;;;;;47.90;45.08;;;12.30;99.90;;;;;;4940534;28;20047;-74
2023/05/03 10:13:40;;;;;;;46.67;43.67;;;11.50;99.90;;;;;;4942518;28;20043;-74
2023/05/03 10:16:16;;;;;;;45.50;42.55;;;11.90;99.90;;;;;;4942877;28;20061;-75
2023/05/03 10:18:50;;;;;;;46.47;43.53;;;12.60;99.90;;;;;;4941631;29;20098;-75
2023/05/03 10:21:39;;;;;;;49.55;46.15;;;12.80;99.90;;;;;;4942252;28;20061;-75
2023/05/03 10:24:14;;;;;;;46.28;43.60;;;12.50;99.90;;;;;;4944442;28;20389;-75
2023/05/03 10:26:46;;;;;;;46.30;43.40;;;13.30;99.90;;;;;;4944676;28;20039;-77
2023/05/03 10:29:36;;;;;;;47.03;43.60;;;13.50;99.90;;;;;;4945315;29;20137;-74
2023/05/03 10:32:04;;;;;;;45.55;42.85;;;13.30;99.90;;;;;;4944427;28;20522;-74
2023/05/03 10:34:32;;;;;;;48.35;44.97;;;12.90;99.90;;;;;;4940128;29;20047;-74
2023/05/03 10:37:09;;;;;;;48.28;45.28;;;12.80;99.90;;;;;;4941982;28;20120;-74
2023/05/03 10:39:36;;;;;;;46.95;44.30;;;12.30;99.90;;;;;;4940041;29;20127;-75
2023/05/03 10:42:07;;;;;;;44.47;41.55;;;12.30;99.90;;;;;;4941843;28;20123;-74
2023/05/03 10:44:53;;;;;;;43.30;40.55;;;12.60;99.90;;;;;;4938942;29;20054;-75
2023/05/03 10:47:23;;;;;;;48.47;45.78;;;13.20;99.90;;;;;;4940652;28;20051;-73
2023/05/03 10:50:15;;;;;;;47.97;45.28;;;12.30;99.90;;;;;;4940027;29;20035;-74
2023/05/03 10:52:42;;;;;;;49.00;45.97;;;12.00;99.90;;;;;;4938090;28;20051;-74
2023/05/03 10:55:19;;;;;;;48.95;46.03;;;12.50;99.90;;;;;;4954591;28;20043;-75
2023/05/03 10:57:47;;;;;;;48.97;46.08;;;12.90;99.90;;;;;;4940307;29;20087;-76
2023/05/03 11:00:36;;;;;;;46.25;43.85;;;13.30;99.90;;;;;;4941878;28;20043;-75
2023/05/03 11:03:20;;;;;;;47.03;44.35;;;12.50;99.90;;;;;;4942262;28;20146;-75
2023/05/03 11:05:48;;;;;;;46.10;43.60;;;12.50;99.90;;;;;;4941888;28;20674;-74
2023/05/03 11:08:17;;;;;;;47.85;44.92;;;12.50;99.90;;;;;;4939654;28;20023;-74
2023/05/03 11:10:45;;;;;;;40.47;38.17;;;12.70;99.90;;;;;;4946395;28;20681;-74
2023/05/03 11:13:13;;;;;;;42.10;39.53;;;13.30;99.90;;;;;;4956249;28;20089;-74
2023/05/03 11:15:41;;;;;;;43.50;41.10;;;14.20;99.90;;;;;;4953737;28;20661;-75
2023/05/03 11:18:10;;;;;;;48.90;45.97;;;14.80;99.90;;;;;;4939576;29;20046;-74
2023/05/03 11:20:37;;;;;;;45.58;42.50;;;14.40;99.90;;;;;;4938480;28;20544;-74
2023/05/03 11:23:05;;;;;;;48.80;46.00;;;14.00;99.90;;;;;;4945501;28;20039;-75
2023/05/03 11:25:33;;;;;;;48.13;45.30;;;13.50;99.90;;;;;;4953881;28;20047;-76
2023/05/03 11:28:03;;;;;;;48.83;45.85;;;13.30;99.90;;;;;;4942340;28;20085;-73
2023/05/03 11:30:36;;;;;;;50.35;47.47;;;13.30;99.90;;;;;;4953910;28;20047;-77
2023/05/03 11:33:03;;;;;;;45.25;42.75;;;13.30;99.90;;;;;;4953585;28;20054;-74
2023/05/03 11:35:30;;;;;;;47.47;44.60;;;14.20;99.90;;;;;;4933437;28;20057;-73
2023/05/03 11:37:57;;;;;;;48.33;45.35;;;14.50;99.90;;;;;;4938918;29;20044;-75
2023/05/03 11:40:24;;;;;;;50.78;47.97;;;14.30;99.90;;;;;;4959162;28;20047;-74
2023/05/03 11:42:57;;;;;;;51.05;48.25;;;13.30;99.90;;;;;;4944530;28;20055;-76
2023/05/03 11:45:25;;;;;;;50.60;47.60;;;12.80;99.90;;;;;;4943181;28;20047;-74
2023/05/03 11:47:53;;;;;;;51.33;48.53;;;13.60;99.90;;;;;;4959112;28;20107;-74
2023/05/03 11:50:26;;;;;;;50.47;47.88;;;13.70;99.90;;;;;;4944164;28;20047;-76
2023/05/03 11:52:54;;;;;;;50.00;47.10;;;14.30;99.90;;;;;;4944502;28;20126;-75
2023/05/03 11:55:21;;;;;;;49.17;46.28;;;14.20;99.90;;;;;;4958429;28;20046;-76
2023/05/03 11:57:48;;;;;;;50.72;47.92;;;14.30;99.90;;;;;;4943915;29;20051;-74
2023/05/03 12:00:19;;;;;;;49.70;46.95;;;13.80;99.90;;;;;;4960095;28;20050;-74
2023/05/03 12:02:49;;;;;;;48.05;45.35;;;14.00;99.90;;;;;;4941878;29;20043;-74
2023/05/03 12:05:17;;;;;;;49.08;46.28;;;13.90;99.90;;;;;;4945050;28;20047;-74
2023/05/03 12:07:45;;;;;;;49.47;46.30;;;13.80;99.90;;;;;;4962615;28;20102;-73
2023/05/03 12:10:15;;;;;;;49.85;46.83;;;14.00;99.90;;;;;;4945036;28;20118;-76
2023/05/03 12:12:58;;;;;;;44.97;42.35;;;14.30;99.90;;;;;;4952552;28;20083;-77
2023/05/03 12:15:31;;;;;;;45.70;43.20;;;14.10;99.90;;;;;;4942433;28;20051;-74
2023/05/03 12:18:04;;;;;;;47.13;44.42;;;13.80;99.90;;;;;;4959604;28;20051;-74
2023/05/03 12:20:31;;;;;;;46.58;44.10;;;14.30;99.90;;;;;;4941895;28;20446;-75
2023/05/03 12:23:18;;;;;;;48.53;45.70;;;14.10;99.90;;;;;;4959939;28;20043;-73
2023/05/03 12:25:46;;;;;;;48.90;46.13;;;14.30;99.90;;;;;;4941645;28;20039;-76
2023/05/03 12:28:16;;;;;;;47.35;44.65;;;13.70;99.90;;;;;;4942224;28;20047;-74
2023/05/03 12:30:47;;;;;;;48.85;45.85;;;13.90;99.90;;;;;;4938986;29;20051;-75
2023/05/03 12:33:15;;;;;;;48.25;45.58;;;13.70;99.90;;;;;;4943105;28;20049;-73
2023/05/03 12:35:43;;;;;;;48.63;45.70;;;14.30;99.90;;;;;;4940837;28;20047;-74
2023/05/03 12:38:13;;;;;;;49.17;45.97;;;14.00;99.90;;;;;;4942929;29;20043;-74
2023/05/03 12:40:44;;;;;;;50.03;46.70;;;14.60;99.90;;;;;;4939347;28;20105;-74
2023/05/03 12:43:11;;;;;;;49.83;46.83;;;14.30;99.90;;;;;;4944553;28;20393;-75